sensor_id;sensor_type;location;lat;lon;timestamp;temperature;humidity
678;DHT22;321;48.814;9.132;2022-10-31T00:01:23;12.80;99.90
678;DHT22;321;48.814;9.132;2022-10-31T00:03:49;12.70;99.90
678;DHT22;321;48.814;9.132;2022-10-31T00:06:15;12.80;99.90
678;DHT22;321;48.814;9.132;2022-10-31T00:08:44;12.70;99.90
678;DHT22;321;48.814;9.132;2022-10-31T00:11:10;12.80;99.90
678;DHT22;321;48.814;9.132;2022-10-31T00:13:36;12.80;99.90
678;DHT22;321;48.814;9.132;2022-10-31T00:16:01;12.80;99.90
678;DHT22;321;48.814;9.132;2022-10-31T00:18:27;12.70;99.90
678;DHT22;321;48.814;9.132;2022-10-31T00:21:00;12.70;99.90
678;DHT22;321;48.814;9.132;2022-10-31T00:23:26;12.70;99.90
678;DHT22;321;48.814;9.132;2022-10-31T00:25:51;12.70;99.90
678;DHT22;321;48.814;9.132;2022-10-31T00:28:17;12.80;99.90
678;DHT22;321;48.814;9.132;2022-10-31T00:30:42;12.80;99.90
678;DHT22;321;48.814;9.132;2022-10-31T00:33:08;12.70;99.90
678;DHT22;321;48.814;9.132;2022-10-31T00:35:33;12.70;99.90
678;DHT22;321;48.814;9.132;2022-10-31T00:37:59;12.70;99.90
678;DHT22;321;48.814;9.132;2022-10-31T00:40:25;12.60;99.90
678;DHT22;321;48.814;9.132;2022-10-31T00:42:50;12.60;99.90
678;DHT22;321;48.814;9.132;2022-10-31T00:45:16;12.60;99.90
678;DHT22;321;48.814;9.132;2022-10-31T00:47:41;12.60;99.90
678;DHT22;321;48.814;9.132;2022-10-31T00:50:07;12.50;99.90
678;DHT22;321;48.814;9.132;2022-10-31T00:52:33;12.50;99.90
678;DHT22;321;48.814;9.132;2022-10-31T00:54:58;12.50;99.90
678;DHT22;321;48.814;9.132;2022-10-31T00:57:24;12.60;99.90
678;DHT22;321;48.814;9.132;2022-10-31T00:59:49;12.40;99.90
678;DHT22;321;48.814;9.132;2022-10-31T01:02:16;12.30;99.90
678;DHT22;321;48.814;9.132;2022-10-31T01:04:41;12.40;99.90
678;DHT22;321;48.814;9.132;2022-10-31T01:07:07;12.30;99.90
678;DHT22;321;48.814;9.132;2022-10-31T01:09:32;12.30;99.90
678;DHT22;321;48.814;9.132;2022-10-31T01:11:58;12.30;99.90
678;DHT22;321;48.814;9.132;2022-10-31T01:14:23;12.40;99.90
678;DHT22;321;48.814;9.132;2022-10-31T01:16:49;12.30;99.90
678;DHT22;321;48.814;9.132;2022-10-31T01:19:14;12.30;99.90
678;DHT22;321;48.814;9.132;2022-10-31T01:21:40;12.20;99.90
678;DHT22;321;48.814;9.132;2022-10-31T01:24:06;12.30;99.90
678;DHT22;321;48.814;9.132;2022-10-31T01:26:32;12.40;99.90
678;DHT22;321;48.814;9.132;2022-10-31T01:29:00;12.20;99.90
678;DHT22;321;48.814;9.132;2022-10-31T01:31:28;12.20;99.90
678;DHT22;321;48.814;9.132;2022-10-31T01:33:57;12.20;99.90
678;DHT22;321;48.814;9.132;2022-10-31T01:38:57;12.40;99.90
678;DHT22;321;48.814;9.132;2022-10-31T01:41:27;12.30;99.90
678;DHT22;321;48.814;9.132;2022-10-31T01:49:19;12.20;99.90
678;DHT22;321;48.814;9.132;2022-10-31T01:52:04;12.30;99.90
678;DHT22;321;48.814;9.132;2022-10-31T01:54:34;12.40;99.90
678;DHT22;321;48.814;9.132;2022-10-31T01:57:02;12.30;99.90
678;DHT22;321;48.814;9.132;2022-10-31T01:59:31;12.20;99.90
678;DHT22;321;48.814;9.132;2022-10-31T02:01:57;12.80;99.90
678;DHT22;321;48.814;9.132;2022-10-31T02:04:25;12.30;99.90
678;DHT22;321;48.814;9.132;2022-10-31T02:07:10;12.30;99.90
678;DHT22;321;48.814;9.132;2022-10-31T02:09:38;12.40;99.90
678;DHT22;321;48.814;9.132;2022-10-31T02:12:05;12.30;99.90
678;DHT22;321;48.814;9.132;2022-10-31T02:14:31;12.20;99.90
678;DHT22;321;48.814;9.132;2022-10-31T02:16:58;12.30;99.90
678;DHT22;321;48.814;9.132;2022-10-31T02:19:33;12.40;99.90
678;DHT22;321;48.814;9.132;2022-10-31T02:25:11;12.10;99.90
678;DHT22;321;48.814;9.132;2022-10-31T02:30:23;12.10;99.90
678;DHT22;321;48.814;9.132;2022-10-31T02:39:23;11.90;99.90
678;DHT22;321;48.814;9.132;2022-10-31T02:42:07;11.90;99.90
678;DHT22;321;48.814;9.132;2022-10-31T02:44:43;12.00;99.90
678;DHT22;321;48.814;9.132;2022-10-31T02:47:14;11.80;99.90
678;DHT22;321;48.814;9.132;2022-10-31T02:52:32;11.80;99.90
678;DHT22;321;48.814;9.132;2022-10-31T02:57:34;11.90;99.90
678;DHT22;321;48.814;9.132;2022-10-31T03:00:06;11.80;99.90
678;DHT22;321;48.814;9.132;2022-10-31T03:08:04;11.80;99.90
678;DHT22;321;48.814;9.132;2022-10-31T03:11:07;11.70;99.90
678;DHT22;321;48.814;9.132;2022-10-31T03:13:49;11.70;99.90
678;DHT22;321;48.814;9.132;2022-10-31T03:16:26;11.80;99.90
678;DHT22;321;48.814;9.132;2022-10-31T03:21:35;11.80;99.90
678;DHT22;321;48.814;9.132;2022-10-31T03:24:02;11.80;99.90
678;DHT22;321;48.814;9.132;2022-10-31T03:26:30;11.70;99.90
678;DHT22;321;48.814;9.132;2022-10-31T03:29:00;11.80;99.90
678;DHT22;321;48.814;9.132;2022-10-31T03:31:30;11.70;99.90
678;DHT22;321;48.814;9.132;2022-10-31T03:33:59;11.90;99.90
678;DHT22;321;48.814;9.132;2022-10-31T03:36:27;11.70;99.90
678;DHT22;321;48.814;9.132;2022-10-31T03:38:54;11.60;99.90
678;DHT22;321;48.814;9.132;2022-10-31T03:41:25;11.60;99.90
678;DHT22;321;48.814;9.132;2022-10-31T03:43:57;11.20;99.90
678;DHT22;321;48.814;9.132;2022-10-31T03:46:24;11.50;99.90
678;DHT22;321;48.814;9.132;2022-10-31T03:48:49;11.50;99.90
678;DHT22;321;48.814;9.132;2022-10-31T03:51:48;11.50;99.90
678;DHT22;321;48.814;9.132;2022-10-31T03:54:28;11.50;99.90
678;DHT22;321;48.814;9.132;2022-10-31T03:59:42;11.60;99.90
678;DHT22;321;48.814;9.132;2022-10-31T04:02:13;11.60;99.90
678;DHT22;321;48.814;9.132;2022-10-31T04:04:40;11.80;99.90
678;DHT22;321;48.814;9.132;2022-10-31T04:07:07;11.60;99.90
678;DHT22;321;48.814;9.132;2022-10-31T04:09:36;11.80;99.90
678;DHT22;321;48.814;9.132;2022-10-31T04:12:06;11.80;99.90
678;DHT22;321;48.814;9.132;2022-10-31T04:14:35;11.60;99.90
678;DHT22;321;48.814;9.132;2022-10-31T04:17:04;11.50;99.90
678;DHT22;321;48.814;9.132;2022-10-31T04:19:29;11.60;99.90
678;DHT22;321;48.814;9.132;2022-10-31T04:24:21;12.20;99.90
678;DHT22;321;48.814;9.132;2022-10-31T04:26:46;11.90;99.90
678;DHT22;321;48.814;9.132;2022-10-31T04:29:12;11.60;99.90
678;DHT22;321;48.814;9.132;2022-10-31T04:31:37;11.60;99.90
678;DHT22;321;48.814;9.132;2022-10-31T04:34:03;11.50;99.90
678;DHT22;321;48.814;9.132;2022-10-31T04:36:28;11.40;99.90
678;DHT22;321;48.814;9.132;2022-10-31T04:38:54;12.00;99.90
678;DHT22;321;48.814;9.132;2022-10-31T04:46:11;11.50;99.90
678;DHT22;321;48.814;9.132;2022-10-31T04:48:37;11.50;99.90
678;DHT22;321;48.814;9.132;2022-10-31T04:51:03;11.50;99.90
678;DHT22;321;48.814;9.132;2022-10-31T04:53:28;11.40;99.90
678;DHT22;321;48.814;9.132;2022-10-31T05:03:12;11.30;99.90
678;DHT22;321;48.814;9.132;2022-10-31T05:05:37;11.30;99.90
678;DHT22;321;48.814;9.132;2022-10-31T05:08:03;11.30;99.90
678;DHT22;321;48.814;9.132;2022-10-31T05:10:30;11.30;99.90
678;DHT22;321;48.814;9.132;2022-10-31T05:12:58;11.50;99.90
678;DHT22;321;48.814;9.132;2022-10-31T05:15:26;11.40;99.90
678;DHT22;321;48.814;9.132;2022-10-31T05:17:52;11.40;99.90
678;DHT22;321;48.814;9.132;2022-10-31T05:20:21;11.30;99.90
678;DHT22;321;48.814;9.132;2022-10-31T05:22:52;11.30;99.90
678;DHT22;321;48.814;9.132;2022-10-31T05:25:19;11.10;99.90
678;DHT22;321;48.814;9.132;2022-10-31T05:27:47;12.00;99.90
678;DHT22;321;48.814;9.132;2022-10-31T05:30:15;10.90;99.90
678;DHT22;321;48.814;9.132;2022-10-31T05:32:44;11.00;99.90
678;DHT22;321;48.814;9.132;2022-10-31T05:35:32;11.00;99.90
678;DHT22;321;48.814;9.132;2022-10-31T05:37:57;11.10;99.90
678;DHT22;321;48.814;9.132;2022-10-31T05:40:26;11.60;99.90
678;DHT22;321;48.814;9.132;2022-10-31T05:42:53;11.00;99.90
678;DHT22;321;48.814;9.132;2022-10-31T05:45:20;11.10;99.90
678;DHT22;321;48.814;9.132;2022-10-31T05:47:57;11.10;99.90
678;DHT22;321;48.814;9.132;2022-10-31T05:50:23;10.70;99.90
678;DHT22;321;48.814;9.132;2022-10-31T05:52:57;10.90;99.90
678;DHT22;321;48.814;9.132;2022-10-31T05:55:23;10.90;99.90
678;DHT22;321;48.814;9.132;2022-10-31T05:57:50;10.70;99.90
678;DHT22;321;48.814;9.132;2022-10-31T06:00:15;10.90;99.90
678;DHT22;321;48.814;9.132;2022-10-31T06:02:41;11.00;99.90
678;DHT22;321;48.814;9.132;2022-10-31T06:05:07;10.70;99.90
678;DHT22;321;48.814;9.132;2022-10-31T06:07:35;10.60;99.90
678;DHT22;321;48.814;9.132;2022-10-31T06:10:03;10.70;99.90
678;DHT22;321;48.814;9.132;2022-10-31T06:29:31;10.70;99.90
678;DHT22;321;48.814;9.132;2022-10-31T06:39:15;11.10;99.90
678;DHT22;321;48.814;9.132;2022-10-31T06:44:07;11.20;99.90
678;DHT22;321;48.814;9.132;2022-10-31T06:46:33;11.30;99.90
678;DHT22;321;48.814;9.132;2022-10-31T06:48:59;11.30;99.90
678;DHT22;321;48.814;9.132;2022-10-31T06:51:24;11.30;99.90
678;DHT22;321;48.814;9.132;2022-10-31T06:53:50;11.40;99.90
678;DHT22;321;48.814;9.132;2022-10-31T06:58:41;11.10;99.90
678;DHT22;321;48.814;9.132;2022-10-31T07:01:07;11.20;99.90
678;DHT22;321;48.814;9.132;2022-10-31T07:03:32;11.20;99.90
678;DHT22;321;48.814;9.132;2022-10-31T07:05:58;11.30;99.90
678;DHT22;321;48.814;9.132;2022-10-31T07:10:55;11.50;99.90
678;DHT22;321;48.814;9.132;2022-10-31T07:13:21;11.80;99.90
678;DHT22;321;48.814;9.132;2022-10-31T07:15:51;11.80;99.90
678;DHT22;321;48.814;9.132;2022-10-31T07:18:17;11.90;99.90
678;DHT22;321;48.814;9.132;2022-10-31T07:20:43;11.90;99.90
678;DHT22;321;48.814;9.132;2022-10-31T07:23:12;12.10;99.90
678;DHT22;321;48.814;9.132;2022-10-31T07:25:41;12.10;99.90
678;DHT22;321;48.814;9.132;2022-10-31T07:28:07;12.30;99.90
678;DHT22;321;48.814;9.132;2022-10-31T07:32:59;12.50;99.90
678;DHT22;321;48.814;9.132;2022-10-31T07:35:26;12.60;99.90
678;DHT22;321;48.814;9.132;2022-10-31T07:37:52;13.20;99.90
678;DHT22;321;48.814;9.132;2022-10-31T07:40:18;12.70;99.90
678;DHT22;321;48.814;9.132;2022-10-31T07:42:46;13.00;99.90
678;DHT22;321;48.814;9.132;2022-10-31T07:45:14;13.10;99.90
678;DHT22;321;48.814;9.132;2022-10-31T07:47:51;12.90;99.90
678;DHT22;321;48.814;9.132;2022-10-31T07:50:19;13.30;99.90
678;DHT22;321;48.814;9.132;2022-10-31T07:52:45;13.30;99.90
678;DHT22;321;48.814;9.132;2022-10-31T07:55:11;13.20;99.90
678;DHT22;321;48.814;9.132;2022-10-31T08:00:08;13.50;99.90
678;DHT22;321;48.814;9.132;2022-10-31T08:02:34;13.50;99.90
678;DHT22;321;48.814;9.132;2022-10-31T08:07:28;13.60;99.90
678;DHT22;321;48.814;9.132;2022-10-31T08:12:20;15.30;99.90
678;DHT22;321;48.814;9.132;2022-10-31T08:19:40;14.60;99.90
678;DHT22;321;48.814;9.132;2022-10-31T08:22:06;14.80;99.90
678;DHT22;321;48.814;9.132;2022-10-31T08:24:32;14.90;99.90
678;DHT22;321;48.814;9.132;2022-10-31T08:26:57;14.80;99.90
678;DHT22;321;48.814;9.132;2022-10-31T08:29:23;14.90;99.90
678;DHT22;321;48.814;9.132;2022-10-31T08:31:48;15.00;99.90
678;DHT22;321;48.814;9.132;2022-10-31T08:34:14;15.30;99.90
678;DHT22;321;48.814;9.132;2022-10-31T08:36:39;15.30;99.90
678;DHT22;321;48.814;9.132;2022-10-31T08:39:05;15.30;99.90
678;DHT22;321;48.814;9.132;2022-10-31T08:41:31;15.40;99.90
678;DHT22;321;48.814;9.132;2022-10-31T08:43:56;15.30;99.90
678;DHT22;321;48.814;9.132;2022-10-31T08:46:22;15.10;99.90
678;DHT22;321;48.814;9.132;2022-10-31T08:48:48;15.40;99.90
678;DHT22;321;48.814;9.132;2022-10-31T08:51:14;15.60;99.90
678;DHT22;321;48.814;9.132;2022-10-31T08:53:39;15.60;99.90
678;DHT22;321;48.814;9.132;2022-10-31T08:56:05;15.40;99.90
678;DHT22;321;48.814;9.132;2022-10-31T08:58:31;15.60;99.90
678;DHT22;321;48.814;9.132;2022-10-31T09:01:00;15.90;99.90
678;DHT22;321;48.814;9.132;2022-10-31T09:03:29;15.70;99.90
678;DHT22;321;48.814;9.132;2022-10-31T09:05:56;16.00;99.90
678;DHT22;321;48.814;9.132;2022-10-31T09:08:22;16.00;99.90
678;DHT22;321;48.814;9.132;2022-10-31T09:10:48;16.10;99.90
678;DHT22;321;48.814;9.132;2022-10-31T09:13:16;16.10;99.90
678;DHT22;321;48.814;9.132;2022-10-31T09:15:44;16.30;99.90
678;DHT22;321;48.814;9.132;2022-10-31T09:18:12;16.20;99.90
678;DHT22;321;48.814;9.132;2022-10-31T09:20:39;16.40;99.90
678;DHT22;321;48.814;9.132;2022-10-31T09:23:11;16.10;99.90
678;DHT22;321;48.814;9.132;2022-10-31T09:25:37;16.50;99.90
678;DHT22;321;48.814;9.132;2022-10-31T09:28:04;16.50;99.90
678;DHT22;321;48.814;9.132;2022-10-31T09:30:32;16.20;99.90
678;DHT22;321;48.814;9.132;2022-10-31T09:33:00;16.40;99.90
678;DHT22;321;48.814;9.132;2022-10-31T09:35:26;16.70;99.90
678;DHT22;321;48.814;9.132;2022-10-31T09:37:56;16.80;99.90
678;DHT22;321;48.814;9.132;2022-10-31T09:40:27;17.10;99.90
678;DHT22;321;48.814;9.132;2022-10-31T09:46:13;17.40;99.90
678;DHT22;321;48.814;9.132;2022-10-31T09:48:52;17.60;99.90
678;DHT22;321;48.814;9.132;2022-10-31T09:51:25;17.70;99.90
678;DHT22;321;48.814;9.132;2022-10-31T09:56:57;17.50;99.90
678;DHT22;321;48.814;9.132;2022-10-31T09:59:31;17.20;99.90
678;DHT22;321;48.814;9.132;2022-10-31T10:02:13;17.60;99.90
678;DHT22;321;48.814;9.132;2022-10-31T10:09:57;17.80;99.90
678;DHT22;321;48.814;9.132;2022-10-31T10:12:42;17.80;99.90
678;DHT22;321;48.814;9.132;2022-10-31T10:16:17;18.00;99.90
678;DHT22;321;48.814;9.132;2022-10-31T10:26:43;18.70;99.90
678;DHT22;321;48.814;9.132;2022-10-31T10:31:58;17.80;99.90
678;DHT22;321;48.814;9.132;2022-10-31T10:34:31;18.10;99.90
678;DHT22;321;48.814;9.132;2022-10-31T10:37:15;18.50;99.90
678;DHT22;321;48.814;9.132;2022-10-31T10:39:49;18.80;99.90
678;DHT22;321;48.814;9.132;2022-10-31T10:42:16;19.00;99.90
678;DHT22;321;48.814;9.132;2022-10-31T10:45:13;19.00;99.90
678;DHT22;321;48.814;9.132;2022-10-31T10:48:15;19.00;99.90
678;DHT22;321;48.814;9.132;2022-10-31T10:50:47;19.00;99.90
678;DHT22;321;48.814;9.132;2022-10-31T10:56:39;18.80;99.90
678;DHT22;321;48.814;9.132;2022-10-31T10:59:14;18.90;99.90
678;DHT22;321;48.814;9.132;2022-10-31T11:01:41;19.10;99.90
678;DHT22;321;48.814;9.132;2022-10-31T11:07:02;18.80;99.90
678;DHT22;321;48.814;9.132;2022-10-31T11:09:28;19.00;99.90
678;DHT22;321;48.814;9.132;2022-10-31T11:11:55;19.00;99.90
678;DHT22;321;48.814;9.132;2022-10-31T11:14:22;18.90;99.90
678;DHT22;321;48.814;9.132;2022-10-31T11:16:53;19.10;99.90
678;DHT22;321;48.814;9.132;2022-10-31T11:19:26;19.30;99.90
678;DHT22;321;48.814;9.132;2022-10-31T11:21:53;19.20;99.90
678;DHT22;321;48.814;9.132;2022-10-31T11:24:20;19.20;99.90
678;DHT22;321;48.814;9.132;2022-10-31T11:26:48;19.40;99.90
678;DHT22;321;48.814;9.132;2022-10-31T11:29:15;19.20;99.90
678;DHT22;321;48.814;9.132;2022-10-31T11:31:41;19.40;99.90
678;DHT22;321;48.814;9.132;2022-10-31T11:34:15;19.00;99.90
678;DHT22;321;48.814;9.132;2022-10-31T11:36:43;18.70;99.90
678;DHT22;321;48.814;9.132;2022-10-31T11:39:22;19.00;99.90
678;DHT22;321;48.814;9.132;2022-10-31T11:41:51;19.10;99.90
678;DHT22;321;48.814;9.132;2022-10-31T11:44:27;19.40;99.90
678;DHT22;321;48.814;9.132;2022-10-31T11:46:56;19.00;99.90
678;DHT22;321;48.814;9.132;2022-10-31T11:49:36;19.30;99.90
678;DHT22;321;48.814;9.132;2022-10-31T11:55:13;19.10;99.90
678;DHT22;321;48.814;9.132;2022-10-31T11:57:57;19.40;99.90
678;DHT22;321;48.814;9.132;2022-10-31T12:00:24;19.70;99.90
678;DHT22;321;48.814;9.132;2022-10-31T12:02:50;19.50;99.90
678;DHT22;321;48.814;9.132;2022-10-31T12:05:27;19.70;99.90
678;DHT22;321;48.814;9.132;2022-10-31T12:07:58;20.00;99.90
678;DHT22;321;48.814;9.132;2022-10-31T12:10:33;19.90;99.90
678;DHT22;321;48.814;9.132;2022-10-31T12:15:33;20.10;99.90
678;DHT22;321;48.814;9.132;2022-10-31T12:20:48;20.30;99.90
678;DHT22;321;48.814;9.132;2022-10-31T12:29:09;20.20;99.90
678;DHT22;321;48.814;9.132;2022-10-31T12:38:02;19.90;99.90
678;DHT22;321;48.814;9.132;2022-10-31T12:41:27;20.00;99.90
678;DHT22;321;48.814;9.132;2022-10-31T12:43:57;20.10;99.90
678;DHT22;321;48.814;9.132;2022-10-31T13:00:03;20.00;99.90
678;DHT22;321;48.814;9.132;2022-10-31T13:02:35;19.20;99.90
678;DHT22;321;48.814;9.132;2022-10-31T13:05:30;19.20;99.90
678;DHT22;321;48.814;9.132;2022-10-31T13:10:39;18.70;99.90
678;DHT22;321;48.814;9.132;2022-10-31T13:13:15;18.70;99.90
678;DHT22;321;48.814;9.132;2022-10-31T13:16:21;18.60;99.90
678;DHT22;321;48.814;9.132;2022-10-31T13:21:28;19.00;99.90
678;DHT22;321;48.814;9.132;2022-10-31T13:23:58;19.00;99.90
678;DHT22;321;48.814;9.132;2022-10-31T13:26:42;19.00;99.90
678;DHT22;321;48.814;9.132;2022-10-31T13:31:45;19.20;99.90
678;DHT22;321;48.814;9.132;2022-10-31T13:34:51;19.10;99.90
678;DHT22;321;48.814;9.132;2022-10-31T13:45:31;19.60;99.90
678;DHT22;321;48.814;9.132;2022-10-31T13:47:59;19.60;99.90
678;DHT22;321;48.814;9.132;2022-10-31T13:50:27;19.70;99.90
678;DHT22;321;48.814;9.132;2022-10-31T13:53:13;19.90;99.90
678;DHT22;321;48.814;9.132;2022-10-31T13:55:44;19.70;99.90
678;DHT22;321;48.814;9.132;2022-10-31T13:58:21;19.50;99.90
678;DHT22;321;48.814;9.132;2022-10-31T14:03:34;19.50;99.90
678;DHT22;321;48.814;9.132;2022-10-31T14:06:01;19.60;99.90
678;DHT22;321;48.814;9.132;2022-10-31T14:08:27;19.40;99.90
678;DHT22;321;48.814;9.132;2022-10-31T14:10:54;19.50;99.90
678;DHT22;321;48.814;9.132;2022-10-31T14:13:26;19.50;99.90
678;DHT22;321;48.814;9.132;2022-10-31T14:16:02;19.50;99.90
678;DHT22;321;48.814;9.132;2022-10-31T14:18:37;19.50;99.90
678;DHT22;321;48.814;9.132;2022-10-31T14:23:51;19.40;99.90
678;DHT22;321;48.814;9.132;2022-10-31T14:28:50;19.20;99.90
678;DHT22;321;48.814;9.132;2022-10-31T14:34:28;19.00;99.90
678;DHT22;321;48.814;9.132;2022-10-31T14:39:56;19.00;99.90
678;DHT22;321;48.814;9.132;2022-10-31T14:48:05;18.70;99.90
678;DHT22;321;48.814;9.132;2022-10-31T14:50:41;18.50;99.90
678;DHT22;321;48.814;9.132;2022-10-31T14:53:36;18.40;99.90
678;DHT22;321;48.814;9.132;2022-10-31T14:55:59;18.40;99.90
678;DHT22;321;48.814;9.132;2022-10-31T14:58:39;18.40;99.90
678;DHT22;321;48.814;9.132;2022-10-31T15:01:15;18.40;99.90
678;DHT22;321;48.814;9.132;2022-10-31T15:03:44;18.30;99.90
678;DHT22;321;48.814;9.132;2022-10-31T15:06:14;18.30;99.90
678;DHT22;321;48.814;9.132;2022-10-31T15:08:48;18.30;99.90
678;DHT22;321;48.814;9.132;2022-10-31T15:11:23;18.20;99.90
678;DHT22;321;48.814;9.132;2022-10-31T15:13:50;18.20;99.90
678;DHT22;321;48.814;9.132;2022-10-31T15:16:22;18.50;99.90
678;DHT22;321;48.814;9.132;2022-10-31T15:19:00;18.10;99.90
678;DHT22;321;48.814;9.132;2022-10-31T15:21:28;18.00;99.90
678;DHT22;321;48.814;9.132;2022-10-31T15:23:56;18.00;99.90
678;DHT22;321;48.814;9.132;2022-10-31T15:26:25;18.00;99.90
678;DHT22;321;48.814;9.132;2022-10-31T15:29:00;17.80;99.90
678;DHT22;321;48.814;9.132;2022-10-31T15:31:27;17.70;99.90
678;DHT22;321;48.814;9.132;2022-10-31T15:33:53;17.70;99.90
678;DHT22;321;48.814;9.132;2022-10-31T15:36:22;17.60;99.90
678;DHT22;321;48.814;9.132;2022-10-31T15:38:49;17.50;99.90
678;DHT22;321;48.814;9.132;2022-10-31T15:41:51;17.40;99.90
678;DHT22;321;48.814;9.132;2022-10-31T15:47:04;17.10;99.90
678;DHT22;321;48.814;9.132;2022-10-31T15:49:40;17.00;99.90
678;DHT22;321;48.814;9.132;2022-10-31T15:52:12;17.00;99.90
678;DHT22;321;48.814;9.132;2022-10-31T15:54:48;16.80;99.90
678;DHT22;321;48.814;9.132;2022-10-31T15:57:15;16.80;99.90
678;DHT22;321;48.814;9.132;2022-10-31T15:59:47;16.70;99.90
678;DHT22;321;48.814;9.132;2022-10-31T16:02:17;16.60;99.90
678;DHT22;321;48.814;9.132;2022-10-31T16:05:00;16.50;99.90
678;DHT22;321;48.814;9.132;2022-10-31T16:07:26;16.50;99.90
678;DHT22;321;48.814;9.132;2022-10-31T16:09:58;16.40;99.90
678;DHT22;321;48.814;9.132;2022-10-31T16:12:36;16.40;99.90
678;DHT22;321;48.814;9.132;2022-10-31T16:15:03;16.30;99.90
678;DHT22;321;48.814;9.132;2022-10-31T16:17:30;16.20;99.90
678;DHT22;321;48.814;9.132;2022-10-31T16:19:59;16.10;99.90
678;DHT22;321;48.814;9.132;2022-10-31T16:22:37;16.10;99.90
678;DHT22;321;48.814;9.132;2022-10-31T16:25:08;16.10;99.90
678;DHT22;321;48.814;9.132;2022-10-31T16:27:36;16.00;99.90
678;DHT22;321;48.814;9.132;2022-10-31T16:30:28;15.90;99.90
678;DHT22;321;48.814;9.132;2022-10-31T16:32:57;15.80;99.90
678;DHT22;321;48.814;9.132;2022-10-31T16:35:37;15.50;99.90
678;DHT22;321;48.814;9.132;2022-10-31T16:38:04;15.30;99.90
678;DHT22;321;48.814;9.132;2022-10-31T16:40:30;15.30;99.90
678;DHT22;321;48.814;9.132;2022-10-31T16:42:58;15.30;99.90
678;DHT22;321;48.814;9.132;2022-10-31T16:45:28;15.20;99.90
678;DHT22;321;48.814;9.132;2022-10-31T16:48:05;15.10;99.90
678;DHT22;321;48.814;9.132;2022-10-31T16:50:32;15.10;99.90
678;DHT22;321;48.814;9.132;2022-10-31T16:52:58;15.00;99.90
678;DHT22;321;48.814;9.132;2022-10-31T16:55:23;14.90;99.90
678;DHT22;321;48.814;9.132;2022-10-31T16:57:54;14.90;99.90
678;DHT22;321;48.814;9.132;2022-10-31T17:00:22;14.90;99.90
678;DHT22;321;48.814;9.132;2022-10-31T17:02:50;14.80;99.90
678;DHT22;321;48.814;9.132;2022-10-31T17:05:18;14.70;99.90
678;DHT22;321;48.814;9.132;2022-10-31T17:07:44;14.50;99.90
678;DHT22;321;48.814;9.132;2022-10-31T17:10:11;14.40;99.90
678;DHT22;321;48.814;9.132;2022-10-31T17:12:38;14.30;99.90
678;DHT22;321;48.814;9.132;2022-10-31T17:15:05;14.30;99.90
678;DHT22;321;48.814;9.132;2022-10-31T17:17:31;14.20;99.90
678;DHT22;321;48.814;9.132;2022-10-31T17:19:57;14.20;99.90
678;DHT22;321;48.814;9.132;2022-10-31T17:22:22;14.20;99.90
678;DHT22;321;48.814;9.132;2022-10-31T17:24:48;14.30;99.90
678;DHT22;321;48.814;9.132;2022-10-31T17:27:13;14.40;99.90
678;DHT22;321;48.814;9.132;2022-10-31T17:29:39;14.50;99.90
678;DHT22;321;48.814;9.132;2022-10-31T17:32:05;14.60;99.90
678;DHT22;321;48.814;9.132;2022-10-31T17:34:30;14.60;99.90
678;DHT22;321;48.814;9.132;2022-10-31T17:36:56;14.60;99.90
678;DHT22;321;48.814;9.132;2022-10-31T17:39:21;14.50;99.90
678;DHT22;321;48.814;9.132;2022-10-31T17:41:50;14.50;99.90
678;DHT22;321;48.814;9.132;2022-10-31T17:44:17;14.50;99.90
678;DHT22;321;48.814;9.132;2022-10-31T17:46:42;14.60;99.90
678;DHT22;321;48.814;9.132;2022-10-31T17:49:10;14.50;99.90
678;DHT22;321;48.814;9.132;2022-10-31T17:51:37;14.40;99.90
678;DHT22;321;48.814;9.132;2022-10-31T17:54:02;14.40;99.90
678;DHT22;321;48.814;9.132;2022-10-31T17:56:30;14.40;99.90
678;DHT22;321;48.814;9.132;2022-10-31T17:58:55;14.40;99.90
678;DHT22;321;48.814;9.132;2022-10-31T18:01:22;14.30;99.90
678;DHT22;321;48.814;9.132;2022-10-31T18:03:48;14.30;99.90
678;DHT22;321;48.814;9.132;2022-10-31T18:06:13;14.20;99.90
678;DHT22;321;48.814;9.132;2022-10-31T18:08:41;14.10;99.90
678;DHT22;321;48.814;9.132;2022-10-31T18:11:10;14.10;99.90
678;DHT22;321;48.814;9.132;2022-10-31T18:13:36;14.00;99.90
678;DHT22;321;48.814;9.132;2022-10-31T18:16:13;14.00;99.90
678;DHT22;321;48.814;9.132;2022-10-31T18:18:39;14.00;99.90
678;DHT22;321;48.814;9.132;2022-10-31T18:21:05;14.00;99.90
678;DHT22;321;48.814;9.132;2022-10-31T18:23:30;14.00;99.90
678;DHT22;321;48.814;9.132;2022-10-31T18:25:56;13.90;99.90
678;DHT22;321;48.814;9.132;2022-10-31T18:28:21;13.90;99.90
678;DHT22;321;48.814;9.132;2022-10-31T18:30:47;13.90;99.90
678;DHT22;321;48.814;9.132;2022-10-31T18:33:12;13.80;99.90
678;DHT22;321;48.814;9.132;2022-10-31T18:35:38;13.40;99.90
678;DHT22;321;48.814;9.132;2022-10-31T18:38:05;13.30;99.90
678;DHT22;321;48.814;9.132;2022-10-31T18:40:32;13.40;99.90
678;DHT22;321;48.814;9.132;2022-10-31T18:42:58;13.30;99.90
678;DHT22;321;48.814;9.132;2022-10-31T18:45:23;13.30;99.90
678;DHT22;321;48.814;9.132;2022-10-31T18:47:52;13.20;99.90
678;DHT22;321;48.814;9.132;2022-10-31T18:50:18;13.30;99.90
678;DHT22;321;48.814;9.132;2022-10-31T18:52:43;13.30;99.90
678;DHT22;321;48.814;9.132;2022-10-31T18:55:09;13.50;99.90
678;DHT22;321;48.814;9.132;2022-10-31T18:57:35;13.70;99.90
678;DHT22;321;48.814;9.132;2022-10-31T19:00:01;13.80;99.90
678;DHT22;321;48.814;9.132;2022-10-31T19:02:27;13.80;99.90
678;DHT22;321;48.814;9.132;2022-10-31T19:04:52;13.90;99.90
678;DHT22;321;48.814;9.132;2022-10-31T19:07:18;13.90;99.90
678;DHT22;321;48.814;9.132;2022-10-31T19:09:43;13.90;99.90
678;DHT22;321;48.814;9.132;2022-10-31T19:12:09;14.00;99.90
678;DHT22;321;48.814;9.132;2022-10-31T19:14:34;14.20;99.90
678;DHT22;321;48.814;9.132;2022-10-31T19:17:00;14.40;99.90
678;DHT22;321;48.814;9.132;2022-10-31T19:19:25;14.50;99.90
678;DHT22;321;48.814;9.132;2022-10-31T19:21:51;14.60;99.90
678;DHT22;321;48.814;9.132;2022-10-31T19:24:16;14.60;99.90
678;DHT22;321;48.814;9.132;2022-10-31T19:26:42;14.50;99.90
678;DHT22;321;48.814;9.132;2022-10-31T19:29:08;14.50;99.90
678;DHT22;321;48.814;9.132;2022-10-31T19:31:34;14.60;99.90
678;DHT22;321;48.814;9.132;2022-10-31T19:33:59;14.70;99.90
678;DHT22;321;48.814;9.132;2022-10-31T19:36:25;14.60;99.90
678;DHT22;321;48.814;9.132;2022-10-31T19:38:52;14.60;99.90
678;DHT22;321;48.814;9.132;2022-10-31T19:41:26;14.60;99.90
678;DHT22;321;48.814;9.132;2022-10-31T19:43:52;14.60;99.90
678;DHT22;321;48.814;9.132;2022-10-31T19:46:19;14.50;99.90
678;DHT22;321;48.814;9.132;2022-10-31T19:48:45;14.50;99.90
678;DHT22;321;48.814;9.132;2022-10-31T19:51:14;14.50;99.90
678;DHT22;321;48.814;9.132;2022-10-31T19:53:41;14.50;99.90
678;DHT22;321;48.814;9.132;2022-10-31T19:56:11;14.40;99.90
678;DHT22;321;48.814;9.132;2022-10-31T19:58:37;14.40;99.90
678;DHT22;321;48.814;9.132;2022-10-31T20:01:11;14.40;99.90
678;DHT22;321;48.814;9.132;2022-10-31T20:03:41;14.30;99.90
678;DHT22;321;48.814;9.132;2022-10-31T20:06:23;14.40;99.90
678;DHT22;321;48.814;9.132;2022-10-31T20:09:00;14.30;99.90